Time;durP1;ratioP1;P1;durP2;ratioP2;P2;SDS_P1;SDS_P2;PMS_P1;PMS_P2;Temp;Humidity;BMP_temperature;BMP_pressure;BME280_temperature;BME280_humidity;BME280_pressure;Samples;Min_cycle;Max_cycle;Signal;HPM_P1;HPM_P2
2021/12/30 00:01:00;;;;;;;5.10;0.85;;;15.10;58.50;;;;;;5112500;28;20036;-66
2021/12/30 00:03:26;;;;;;;5.32;0.65;;;15.10;58.60;;;;;;5113931;28;20047;-66
2021/12/30 00:05:52;;;;;;;6.55;1.48;;;15.10;58.60;;;;;;5112503;28;20043;-66
2021/12/30 00:08:20;;;;;;;5.30;1.00;;;15.00;58.50;;;;;;5112346;28;20100;-66
2021/12/30 00:10:46;;;;;;;6.22;1.30;;;15.10;58.60;;;;;;5111387;28;20054;-66
2021/12/30 00:13:15;;;;;;;5.88;1.40;;;15.00;59.30;;;;;;5112295;28;20035;-66
2021/12/30 00:15:41;;;;;;;8.50;1.70;;;15.00;58.50;;;;;;5113532;28;20392;-66
2021/12/30 00:18:11;;;;;;;5.47;1.00;;;15.00;58.50;;;;;;5112211;28;20422;-66
2021/12/30 00:20:37;;;;;;;5.57;1.20;;;15.00;58.50;;;;;;5112187;28;20043;-66
2021/12/30 00:23:06;;;;;;;7.15;1.08;;;15.00;58.50;;;;;;5113309;28;20376;-66
2021/12/30 00:25:39;;;;;;;6.75;1.23;;;15.00;58.50;;;;;;5112006;28;20543;-67
2021/12/30 00:28:07;;;;;;;5.57;1.52;;;15.00;58.60;;;;;;5111572;28;20206;-65
2021/12/30 00:30:33;;;;;;;7.50;1.27;;;15.00;58.50;;;;;;5112073;28;20048;-66
2021/12/30 00:32:59;;;;;;;9.68;1.60;;;15.00;58.50;;;;;;5111796;28;20171;-66
2021/12/30 00:35:25;;;;;;;4.38;1.17;;;15.00;58.50;;;;;;5112117;28;20036;-66
2021/12/30 00:37:54;;;;;;;8.45;1.60;;;15.00;58.50;;;;;;5113045;28;20044;-66
2021/12/30 00:40:23;;;;;;;5.47;1.30;;;15.00;58.50;;;;;;5111981;28;20071;-66
2021/12/30 00:42:48;;;;;;;7.07;1.30;;;15.00;58.50;;;;;;5113138;28;20070;-66
2021/12/30 00:45:17;;;;;;;4.82;1.00;;;15.00;58.50;;;;;;5111952;28;20130;-66
2021/12/30 00:47:49;;;;;;;7.72;1.90;;;15.00;58.50;;;;;;5111585;28;20079;-68
2021/12/30 00:50:15;;;;;;;9.10;1.42;;;15.00;58.50;;;;;;5112927;28;20028;-66
2021/12/30 00:52:40;;;;;;;8.23;1.70;;;14.90;58.40;;;;;;5112798;28;20433;-65
2021/12/30 00:55:07;;;;;;;3.92;1.50;;;15.00;58.50;;;;;;5112794;28;20076;-66
2021/12/30 00:57:33;;;;;;;7.00;1.27;;;14.90;58.50;;;;;;5112955;28;20426;-66
2021/12/30 00:59:58;;;;;;;6.22;1.65;;;14.90;58.40;;;;;;5111718;28;20048;-67
2021/12/30 01:02:24;;;;;;;6.90;1.73;;;14.90;58.50;;;;;;5111653;28;20047;-65
2021/12/30 01:04:50;;;;;;;7.75;1.67;;;14.90;58.40;;;;;;5111513;28;20473;-66
2021/12/30 01:07:21;;;;;;;7.53;2.38;;;14.90;58.40;;;;;;5111313;28;20083;-66
2021/12/30 01:09:46;;;;;;;7.18;1.58;;;14.90;58.50;;;;;;5111482;28;20046;-67
2021/12/30 01:12:12;;;;;;;7.32;1.75;;;14.90;58.50;;;;;;5111550;28;20039;-67
2021/12/30 01:14:38;;;;;;;7.25;1.60;;;14.90;58.50;;;;;;5111334;28;20413;-66
2021/12/30 01:17:17;;;;;;;9.45;2.28;;;14.90;58.50;;;;;;5111414;28;20039;-66
2021/12/30 01:19:43;;;;;;;8.63;1.90;;;14.90;58.50;;;;;;5111332;28;20097;-66
2021/12/30 01:22:12;;;;;;;10.75;2.13;;;14.90;58.50;;;;;;5111240;28;20048;-66
2021/12/30 01:24:40;;;;;;;6.82;1.63;;;14.90;58.40;;;;;;5111335;28;20058;-66
2021/12/30 01:27:06;;;;;;;7.65;1.20;;;14.90;58.40;;;;;;5112081;28;20060;-67
2021/12/30 01:29:32;;;;;;;10.75;2.35;;;14.90;58.40;;;;;;5110960;28;20380;-66
2021/12/30 01:31:58;;;;;;;6.50;1.95;;;14.90;58.40;;;;;;5111228;28;20048;-66
2021/12/30 01:34:27;;;;;;;7.72;2.17;;;14.90;58.40;;;;;;5112301;28;20455;-66
2021/12/30 01:36:54;;;;;;;7.15;1.48;;;14.90;58.40;;;;;;5111196;28;20044;-66
2021/12/30 01:39:22;;;;;;;10.68;2.10;;;14.90;58.30;;;;;;5110935;28;20050;-67
2021/12/30 01:41:49;;;;;;;7.53;1.42;;;14.90;58.30;;;;;;5111211;28;20414;-67
2021/12/30 01:44:14;;;;;;;7.47;1.33;;;14.90;58.30;;;;;;5110930;28;20052;-65
2021/12/30 01:46:42;;;;;;;8.02;1.80;;;14.90;58.30;;;;;;5111030;28;20050;-66
2021/12/30 01:49:10;;;;;;;7.28;2.28;;;14.80;58.30;;;;;;5111109;28;20039;-66
2021/12/30 01:51:36;;;;;;;6.30;1.50;;;14.80;58.30;;;;;;5112118;28;20387;-66
2021/12/30 01:54:01;;;;;;;9.02;1.98;;;14.80;58.30;;;;;;5112251;28;20036;-66
2021/12/30 01:56:28;;;;;;;11.68;2.38;;;14.90;58.30;;;;;;5110589;28;20053;-65
2021/12/30 01:58:55;;;;;;;8.10;1.80;;;14.80;58.30;;;;;;5110934;28;20474;-67
2021/12/30 02:01:20;;;;;;;9.98;2.08;;;14.80;58.30;;;;;;5111007;28;20047;-66
2021/12/30 02:03:49;;;;;;;7.55;2.42;;;14.80;58.40;;;;;;5112076;28;20555;-66
2021/12/30 02:06:15;;;;;;;9.48;1.98;;;14.80;58.40;;;;;;5110852;28;20059;-67
2021/12/30 02:08:43;;;;;;;5.43;1.60;;;14.80;58.40;;;;;;5111929;28;20035;-66
2021/12/30 02:11:11;;;;;;;9.60;2.83;;;14.80;58.50;;;;;;5112055;28;20386;-66
2021/12/30 02:13:36;;;;;;;7.95;2.15;;;14.80;58.50;;;;;;5110555;28;20067;-67
2021/12/30 02:16:02;;;;;;;11.40;1.75;;;14.80;58.50;;;;;;5111861;28;20070;-66
2021/12/30 02:18:30;;;;;;;7.63;1.75;;;14.80;58.50;;;;;;5110598;28;20044;-67
2021/12/30 02:20:58;;;;;;;10.63;2.72;;;14.80;58.60;;;;;;5110688;28;20074;-66
2021/12/30 02:26:10;;;;;;;8.27;2.00;;;14.80;58.60;;;;;;5150892;27;20107;-66
2021/12/30 02:28:37;;;;;;;6.95;1.95;;;14.80;58.70;;;;;;5129084;28;20043;-66
2021/12/30 02:31:07;;;;;;;9.18;2.17;;;14.80;58.60;;;;;;5130565;28;20035;-66
2021/12/30 02:33:36;;;;;;;7.68;2.50;;;14.80;58.70;;;;;;5129106;28;20368;-66
2021/12/30 02:36:03;;;;;;;10.32;1.92;;;14.80;58.70;;;;;;5130305;27;20036;-67
2021/12/30 02:38:29;;;;;;;8.82;1.95;;;14.80;58.70;;;;;;5129075;28;20035;-66
2021/12/30 02:40:57;;;;;;;8.57;2.70;;;14.80;58.70;;;;;;5128827;28;20478;-66
2021/12/30 02:43:26;;;;;;;6.88;2.40;;;14.80;58.70;;;;;;5129048;28;20367;-66
2021/12/30 02:45:54;;;;;;;11.57;2.92;;;14.80;58.70;;;;;;5128534;28;20514;-66
2021/12/30 02:48:24;;;;;;;7.43;2.17;;;14.80;58.80;;;;;;5128910;28;20055;-67
2021/12/30 02:50:53;;;;;;;8.00;2.35;;;14.80;58.80;;;;;;5128769;28;20047;-66
2021/12/30 02:53:20;;;;;;;7.47;2.30;;;14.80;58.80;;;;;;5128864;28;20122;-66
2021/12/30 02:55:46;;;;;;;6.65;2.10;;;14.80;58.80;;;;;;5128865;28;20152;-67
2021/12/30 02:58:13;;;;;;;7.85;2.38;;;14.80;58.80;;;;;;5130050;27;20181;-66
2021/12/30 03:00:40;;;;;;;7.68;2.47;;;14.80;58.80;;;;;;5129732;27;20040;-66
2021/12/30 03:03:06;;;;;;;8.57;2.08;;;14.80;58.80;;;;;;5129501;27;20122;-66
2021/12/30 03:05:32;;;;;;;8.07;2.38;;;14.80;58.80;;;;;;5129533;28;20126;-66
2021/12/30 03:07:58;;;;;;;8.13;2.42;;;14.80;58.80;;;;;;5129660;27;20490;-67
2021/12/30 03:10:27;;;;;;;9.52;2.58;;;14.80;58.80;;;;;;5128606;28;20045;-66
2021/12/30 03:12:58;;;;;;;9.57;2.47;;;14.80;58.80;;;;;;5129805;27;20039;-65
2021/12/30 03:15:26;;;;;;;6.28;2.17;;;14.80;58.80;;;;;;5129454;27;20043;-66
2021/12/30 03:17:51;;;;;;;10.65;2.17;;;14.80;58.80;;;;;;5129737;27;20363;-66
2021/12/30 03:20:17;;;;;;;6.03;2.20;;;14.80;58.80;;;;;;5128274;28;20081;-66
2021/12/30 03:22:44;;;;;;;9.45;2.80;;;14.80;58.90;;;;;;5127933;28;20406;-66
2021/12/30 03:25:12;;;;;;;6.72;1.83;;;14.80;58.90;;;;;;5128239;27;20406;-66
2021/12/30 03:27:41;;;;;;;6.20;2.03;;;14.80;58.90;;;;;;5127829;28;20043;-66
2021/12/30 03:30:12;;;;;;;8.85;2.20;;;14.80;59.00;;;;;;5129187;27;20118;-66
2021/12/30 03:32:38;;;;;;;11.07;1.95;;;14.80;58.90;;;;;;5129034;27;20043;-67
2021/12/30 03:35:05;;;;;;;8.07;2.00;;;14.80;58.90;;;;;;5129042;27;20450;-66
2021/12/30 03:37:31;;;;;;;7.95;2.15;;;14.80;58.90;;;;;;5113420;28;20054;-66
2021/12/30 03:39:57;;;;;;;8.68;2.50;;;14.80;58.80;;;;;;5115287;28;20036;-67
2021/12/30 03:42:23;;;;;;;8.45;2.05;;;14.80;59.60;;;;;;5114036;28;20031;-67
2021/12/30 03:44:49;;;;;;;7.55;1.80;;;14.80;58.90;;;;;;5113766;28;20047;-66
2021/12/30 03:47:18;;;;;;;8.30;2.25;;;14.80;58.90;;;;;;5113841;28;20072;-67
2021/12/30 03:49:46;;;;;;;7.18;2.53;;;14.80;58.90;;;;;;5114050;28;20390;-65
2021/12/30 03:52:15;;;;;;;6.95;2.42;;;14.80;58.90;;;;;;5113758;28;20136;-66
2021/12/30 03:54:42;;;;;;;8.98;2.22;;;14.80;58.80;;;;;;5113648;28;20071;-67
2021/12/30 03:57:08;;;;;;;8.65;2.63;;;14.80;58.80;;;;;;5115017;28;20126;-66
2021/12/30 03:59:34;;;;;;;6.03;2.33;;;14.80;58.80;;;;;;5113778;28;20047;-66
2021/12/30 04:02:00;;;;;;;6.47;2.30;;;14.80;58.80;;;;;;5113482;28;20395;-66
2021/12/30 04:04:28;;;;;;;8.57;2.28;;;14.80;58.90;;;;;;5115012;28;20042;-66
2021/12/30 04:06:54;;;;;;;9.38;1.75;;;14.90;59.00;;;;;;5113716;28;20383;-66
2021/12/30 04:09:20;;;;;;;8.27;2.40;;;14.80;59.00;;;;;;5113668;28;20054;-66
2021/12/30 04:11:46;;;;;;;7.00;1.90;;;14.80;59.00;;;;;;5114692;28;20118;-66
2021/12/30 04:14:11;;;;;;;6.15;1.85;;;14.80;58.90;;;;;;5106942;28;20050;-66
2021/12/30 04:16:37;;;;;;;6.75;1.85;;;14.80;58.90;;;;;;5093053;28;20052;-66
2021/12/30 04:19:03;;;;;;;11.00;2.65;;;14.90;59.00;;;;;;5094277;28;20028;-67
2021/12/30 04:21:29;;;;;;;7.80;2.08;;;14.80;58.90;;;;;;5094035;28;20373;-66
2021/12/30 04:23:55;;;;;;;8.07;2.10;;;14.80;58.90;;;;;;5093865;28;20139;-66
2021/12/30 04:26:20;;;;;;;7.80;1.67;;;14.80;58.90;;;;;;5092272;28;20055;-66
2021/12/30 04:28:46;;;;;;;9.63;2.00;;;14.90;58.90;;;;;;5092781;28;20123;-66
2021/12/30 04:31:12;;;;;;;8.27;2.53;;;14.80;59.00;;;;;;5092512;28;20044;-66
2021/12/30 04:33:38;;;;;;;9.07;1.85;;;14.80;59.00;;;;;;5092871;28;20093;-66
2021/12/30 04:36:04;;;;;;;9.45;3.00;;;14.90;59.10;;;;;;5092458;28;20047;-65
2021/12/30 04:38:31;;;;;;;6.05;1.67;;;14.80;59.00;;;;;;5093903;28;20063;-67
2021/12/30 04:40:58;;;;;;;7.07;2.10;;;14.90;59.00;;;;;;5093744;28;20384;-66
2021/12/30 04:43:24;;;;;;;8.50;2.22;;;14.90;59.10;;;;;;5092355;28;20040;-66
2021/12/30 04:45:50;;;;;;;7.88;1.92;;;14.90;59.10;;;;;;5092099;28;20044;-66
2021/12/30 04:48:17;;;;;;;6.68;2.78;;;14.80;59.00;;;;;;5091273;28;20372;-66
2021/12/30 04:50:45;;;;;;;7.20;1.90;;;14.80;59.10;;;;;;5092217;28;20039;-66
2021/12/30 04:53:12;;;;;;;5.93;1.45;;;14.80;59.80;;;;;;5092264;28;20044;-67
2021/12/30 04:55:38;;;;;;;4.45;1.48;;;14.80;59.10;;;;;;5092140;28;20051;-66
2021/12/30 04:58:05;;;;;;;7.55;2.03;;;14.80;59.20;;;;;;5092312;28;20040;-65
2021/12/30 05:00:31;;;;;;;6.55;1.85;;;14.90;59.20;;;;;;5092186;28;20454;-66
2021/12/30 05:03:14;;;;;;;3.03;1.42;;;14.90;59.20;;;;;;5093479;28;20399;-66
2021/12/30 05:05:45;;;;;;;5.30;1.50;;;14.90;59.30;;;;;;5091829;28;20507;-66
2021/12/30 05:08:13;;;;;;;5.57;1.83;;;14.90;59.20;;;;;;5093170;28;20043;-66
2021/12/30 05:10:42;;;;;;;6.70;2.20;;;14.90;59.30;;;;;;5092144;28;20042;-66
2021/12/30 05:13:09;;;;;;;6.00;2.00;;;14.90;59.40;;;;;;5091780;28;20044;-67
2021/12/30 05:15:36;;;;;;;5.45;1.48;;;14.90;59.40;;;;;;5109444;28;20046;-67
2021/12/30 05:18:03;;;;;;;5.30;1.40;;;14.80;59.30;;;;;;5113531;28;20046;-67
2021/12/30 05:20:29;;;;;;;5.35;1.30;;;14.90;60.10;;;;;;5113208;28;20058;-66
2021/12/30 05:22:55;;;;;;;5.68;1.30;;;14.80;59.30;;;;;;5113321;28;20032;-66
2021/12/30 05:25:21;;;;;;;6.07;1.10;;;14.90;59.30;;;;;;5111657;28;20380;-66
2021/12/30 05:27:50;;;;;;;5.65;1.70;;;14.90;59.40;;;;;;5111679;28;20059;-66
2021/12/30 05:30:16;;;;;;;4.22;1.20;;;14.90;59.50;;;;;;5111899;28;20055;-66
2021/12/30 05:32:42;;;;;;;5.57;1.60;;;14.90;59.40;;;;;;5112994;28;20364;-66
2021/12/30 05:35:11;;;;;;;6.05;1.40;;;14.90;59.40;;;;;;5113011;28;20179;-66
2021/12/30 05:37:38;;;;;;;5.18;1.50;;;14.80;59.40;;;;;;5111663;28;20055;-66
2021/12/30 05:40:07;;;;;;;6.80;1.42;;;14.90;59.50;;;;;;5112978;28;20039;-66
2021/12/30 05:42:32;;;;;;;6.95;1.77;;;14.90;59.50;;;;;;5111762;28;20050;-66
2021/12/30 05:44:58;;;;;;;5.35;2.05;;;14.90;60.10;;;;;;5111833;28;20394;-67
2021/12/30 05:47:24;;;;;;;4.03;1.33;;;14.80;59.40;;;;;;5112960;28;20042;-66
2021/12/30 05:49:52;;;;;;;3.92;1.08;;;14.80;59.40;;;;;;5112929;28;20110;-66
2021/12/30 05:52:18;;;;;;;5.15;1.50;;;14.90;59.50;;;;;;5111807;28;20035;-66
2021/12/30 05:54:44;;;;;;;4.28;1.65;;;14.90;59.60;;;;;;5112760;28;20537;-66
2021/12/30 05:57:10;;;;;;;3.97;1.42;;;14.80;59.50;;;;;;5112564;28;20467;-66
2021/12/30 05:59:36;;;;;;;3.22;1.10;;;14.90;59.60;;;;;;5111036;28;20498;-66
2021/12/30 06:02:02;;;;;;;4.15;1.05;;;14.80;59.60;;;;;;5112701;28;20468;-66
2021/12/30 06:04:28;;;;;;;3.75;1.00;;;14.80;59.60;;;;;;5112550;28;20104;-66
2021/12/30 06:06:53;;;;;;;4.05;1.45;;;14.80;59.60;;;;;;5112554;28;20032;-66
2021/12/30 06:09:24;;;;;;;4.93;1.70;;;14.90;59.80;;;;;;5112406;28;20447;-66
2021/12/30 06:11:55;;;;;;;3.75;1.33;;;14.90;59.80;;;;;;5111435;28;20047;-66
2021/12/30 06:14:21;;;;;;;3.65;1.15;;;14.80;59.80;;;;;;5107804;28;20097;-66
2021/12/30 06:16:47;;;;;;;3.58;1.25;;;14.90;59.80;;;;;;5092191;28;20044;-66
2021/12/30 06:19:12;;;;;;;4.90;1.45;;;14.90;59.80;;;;;;5090743;28;20039;-66
2021/12/30 06:21:38;;;;;;;3.35;1.33;;;14.90;59.90;;;;;;5090700;28;20059;-67
2021/12/30 06:24:04;;;;;;;5.53;1.40;;;14.90;59.90;;;;;;5091918;28;20040;-67
2021/12/30 06:26:29;;;;;;;5.55;1.58;;;14.90;60.60;;;;;;5090223;28;20052;-67
2021/12/30 06:28:55;;;;;;;3.45;1.20;;;14.90;59.90;;;;;;5090576;28;20044;-67
2021/12/30 06:31:21;;;;;;;4.32;1.52;;;14.90;60.00;;;;;;5092106;28;20122;-67
2021/12/30 06:33:46;;;;;;;4.05;1.23;;;14.90;60.00;;;;;;5090817;28;20181;-67
2021/12/30 06:36:12;;;;;;;3.65;1.33;;;14.90;60.10;;;;;;5092040;28;20024;-67
2021/12/30 06:38:38;;;;;;;5.10;1.23;;;14.90;60.10;;;;;;5092258;28;20150;-66
2021/12/30 06:41:04;;;;;;;4.25;0.90;;;14.90;60.10;;;;;;5091937;28;20040;-66
2021/12/30 06:43:30;;;;;;;3.13;0.85;;;14.90;60.10;;;;;;5090435;28;20483;-66
2021/12/30 06:46:01;;;;;;;3.85;1.40;;;14.90;60.20;;;;;;5090474;28;20051;-67
2021/12/30 06:48:27;;;;;;;2.92;1.20;;;14.90;60.30;;;;;;5091732;28;20071;-66
2021/12/30 06:50:53;;;;;;;3.92;1.00;;;14.90;60.30;;;;;;5090477;28;20085;-66
2021/12/30 06:53:20;;;;;;;2.63;1.17;;;14.90;60.30;;;;;;5090710;28;20048;-66
2021/12/30 06:55:47;;;;;;;3.72;1.40;;;14.90;60.40;;;;;;5090358;28;20483;-66
2021/12/30 06:58:13;;;;;;;2.85;1.02;;;14.90;60.40;;;;;;5090396;28;20575;-66
2021/12/30 07:00:39;;;;;;;2.72;1.20;;;14.90;60.40;;;;;;5090292;28;20082;-67
2021/12/30 07:03:06;;;;;;;2.08;1.02;;;14.90;60.40;;;;;;5091859;28;20083;-66
2021/12/30 07:05:32;;;;;;;5.38;1.50;;;14.90;60.40;;;;;;5090292;28;20076;-66
2021/12/30 07:07:58;;;;;;;3.03;0.80;;;14.90;60.50;;;;;;5091568;28;20036;-66
2021/12/30 07:10:24;;;;;;;3.58;1.23;;;14.90;60.50;;;;;;5091555;28;20437;-66
2021/12/30 07:12:49;;;;;;;3.85;0.88;;;14.90;60.60;;;;;;5095259;28;20076;-66
2021/12/30 07:15:15;;;;;;;3.63;0.73;;;14.90;60.70;;;;;;5094268;28;20181;-65
2021/12/30 07:17:41;;;;;;;3.10;1.10;;;14.90;60.80;;;;;;5095449;28;20514;-66
2021/12/30 07:20:08;;;;;;;2.60;0.73;;;14.90;60.80;;;;;;5095635;28;20050;-65
2021/12/30 07:22:35;;;;;;;4.03;0.75;;;14.90;60.80;;;;;;5095594;28;20040;-66
2021/12/30 07:25:00;;;;;;;2.85;0.75;;;14.90;60.90;;;;;;5093448;28;20496;-65
2021/12/30 07:27:26;;;;;;;2.10;0.60;;;14.90;60.90;;;;;;5095050;28;20051;-66
2021/12/30 07:29:52;;;;;;;2.20;0.57;;;14.90;61.00;;;;;;5093622;28;20551;-66
2021/12/30 07:32:18;;;;;;;2.90;0.50;;;14.90;61.10;;;;;;5094031;28;20047;-65
2021/12/30 07:34:44;;;;;;;2.38;0.40;;;14.90;61.10;;;;;;5095221;28;20050;-66
2021/12/30 07:37:14;;;;;;;2.13;0.47;;;14.90;61.20;;;;;;5094891;28;20044;-66
2021/12/30 07:39:40;;;;;;;2.55;0.98;;;14.90;61.20;;;;;;5093729;28;20036;-66
2021/12/30 07:42:06;;;;;;;2.85;0.90;;;14.90;61.30;;;;;;5093758;28;20043;-66
2021/12/30 07:44:32;;;;;;;2.47;0.40;;;14.90;61.30;;;;;;5093481;28;20395;-66
2021/12/30 07:46:57;;;;;;;1.92;0.30;;;14.90;61.30;;;;;;5093444;28;20048;-66
2021/12/30 07:49:23;;;;;;;1.48;0.50;;;14.90;61.40;;;;;;5093456;28;20042;-66
2021/12/30 07:51:49;;;;;;;1.23;0.43;;;14.90;61.40;;;;;;5094598;28;20070;-66
2021/12/30 07:54:14;;;;;;;2.45;0.35;;;14.90;61.40;;;;;;5094653;28;20044;-67
2021/12/30 07:56:40;;;;;;;1.48;0.50;;;14.90;61.40;;;;;;5093201;28;20071;-67
2021/12/30 07:59:06;;;;;;;1.00;0.38;;;14.90;61.50;;;;;;5094397;28;20051;-66
2021/12/30 08:01:31;;;;;;;1.02;0.38;;;14.90;61.50;;;;;;5093452;28;20054;-66
2021/12/30 08:03:57;;;;;;;2.42;0.60;;;14.90;61.50;;;;;;5093382;28;20040;-65
2021/12/30 08:06:26;;;;;;;0.98;0.38;;;14.90;61.60;;;;;;5093057;28;20186;-65
2021/12/30 08:08:52;;;;;;;1.52;0.30;;;14.90;61.60;;;;;;5094353;28;20049;-66
2021/12/30 08:11:21;;;;;;;1.38;0.50;;;14.90;61.70;;;;;;5093217;28;20036;-67
2021/12/30 08:13:46;;;;;;;2.28;0.38;;;14.90;61.70;;;;;;5094164;28;20036;-66
2021/12/30 08:16:13;;;;;;;0.75;0.30;;;14.90;61.90;;;;;;5094148;28;20089;-66
2021/12/30 08:18:40;;;;;;;1.48;0.50;;;14.90;62.00;;;;;;5093190;28;20051;-66
2021/12/30 08:21:06;;;;;;;1.73;0.30;;;14.90;62.00;;;;;;5093098;28;20059;-66
2021/12/30 08:23:32;;;;;;;1.67;0.40;;;14.90;62.00;;;;;;5093925;28;20040;-66
2021/12/30 08:25:57;;;;;;;1.48;0.30;;;14.90;62.00;;;;;;5092472;28;20181;-67
2021/12/30 08:28:25;;;;;;;0.90;0.30;;;14.90;62.10;;;;;;5093803;28;20564;-65
2021/12/30 08:30:51;;;;;;;1.02;0.45;;;14.90;62.10;;;;;;5092692;28;20089;-66
2021/12/30 08:33:17;;;;;;;1.55;0.30;;;14.90;62.20;;;;;;5092821;28;20044;-66
2021/12/30 08:35:43;;;;;;;0.60;0.25;;;14.90;62.30;;;;;;5092602;28;20083;-66
2021/12/30 08:38:09;;;;;;;1.73;0.77;;;14.90;62.30;;;;;;5092461;28;20075;-66
2021/12/30 08:40:34;;;;;;;1.45;0.30;;;14.90;62.40;;;;;;5092482;28;20071;-66
2021/12/30 08:43:00;;;;;;;1.77;0.40;;;14.90;62.40;;;;;;5092670;28;20097;-66
2021/12/30 08:45:29;;;;;;;1.20;0.32;;;14.90;62.40;;;;;;5093447;28;20043;-67
2021/12/30 08:47:55;;;;;;;1.10;0.32;;;14.90;62.50;;;;;;5092252;28;20089;-66
2021/12/30 08:50:20;;;;;;;0.80;0.40;;;14.90;62.60;;;;;;5093688;28;20032;-66
2021/12/30 08:52:47;;;;;;;1.50;0.40;;;14.90;63.00;;;;;;5092268;28;20058;-66
2021/12/30 08:55:14;;;;;;;2.88;0.77;;;14.90;62.90;;;;;;5092471;28;20456;-66
2021/12/30 08:57:41;;;;;;;1.70;0.25;;;14.90;63.00;;;;;;5093297;28;20434;-66
2021/12/30 09:00:13;;;;;;;2.47;0.25;;;14.90;63.70;;;;;;5092027;28;20036;-66
2021/12/30 09:02:40;;;;;;;2.00;0.40;;;14.90;63.00;;;;;;5092306;28;20040;-66
2021/12/30 09:05:06;;;;;;;2.08;0.50;;;14.90;63.10;;;;;;5093204;28;20048;-66
2021/12/30 09:07:31;;;;;;;2.38;0.50;;;14.90;63.20;;;;;;5091948;28;20040;-66
2021/12/30 09:09:57;;;;;;;1.33;0.30;;;14.90;63.20;;;;;;5091824;28;20039;-66
2021/12/30 09:12:24;;;;;;;0.77;0.20;;;14.90;63.20;;;;;;5091894;28;20036;-66
2021/12/30 09:14:50;;;;;;;1.60;0.30;;;14.90;63.30;;;;;;5092794;28;20044;-66
2021/12/30 09:17:16;;;;;;;2.03;0.40;;;14.90;63.40;;;;;;5092009;28;20039;-66
2021/12/30 09:19:42;;;;;;;2.00;0.40;;;14.90;63.40;;;;;;5093024;28;20408;-67
2021/12/30 09:22:07;;;;;;;1.80;0.30;;;14.90;64.30;;;;;;5091667;28;20042;-66
2021/12/30 09:24:33;;;;;;;0.82;0.30;;;14.90;63.60;;;;;;5091733;28;20044;-67
2021/12/30 09:27:00;;;;;;;1.48;0.40;;;14.90;63.60;;;;;;5091353;28;20411;-66
2021/12/30 09:29:29;;;;;;;2.67;0.43;;;14.90;63.80;;;;;;5091704;28;20047;-66
2021/12/30 09:31:57;;;;;;;2.20;0.60;;;14.90;63.90;;;;;;5092920;28;20379;-66
2021/12/30 09:34:22;;;;;;;1.85;0.40;;;14.90;63.90;;;;;;5092153;28;20059;-66
2021/12/30 09:36:48;;;;;;;1.60;0.30;;;14.90;63.90;;;;;;5091368;28;20040;-66
2021/12/30 09:39:15;;;;;;;1.38;0.30;;;14.90;64.00;;;;;;5074403;28;20082;-67
2021/12/30 09:41:44;;;;;;;1.30;0.30;;;14.90;63.90;;;;;;5092616;28;20471;-66
2021/12/30 09:44:12;;;;;;;2.60;0.50;;;14.90;64.00;;;;;;5091273;28;20043;-66
2021/12/30 09:46:38;;;;;;;1.80;0.40;;;14.90;63.90;;;;;;5091523;28;20051;-66
2021/12/30 09:49:07;;;;;;;1.88;0.47;;;14.90;64.00;;;;;;5092406;28;20498;-67
2021/12/30 09:51:34;;;;;;;1.02;0.40;;;14.90;64.10;;;;;;5091399;28;20040;-66
2021/12/30 09:54:01;;;;;;;1.70;0.30;;;14.90;64.20;;;;;;5091145;28;20048;-66
2021/12/30 09:56:28;;;;;;;1.52;0.25;;;15.00;64.20;;;;;;5091021;28;20039;-66
2021/12/30 09:58:54;;;;;;;2.67;0.40;;;14.90;64.20;;;;;;5092323;28;20032;-67
2021/12/30 10:01:20;;;;;;;1.30;0.40;;;15.00;64.40;;;;;;5092576;28;20043;-66
2021/12/30 10:03:46;;;;;;;2.38;0.50;;;15.00;64.40;;;;;;5102085;28;20031;-68
2021/12/30 10:06:16;;;;;;;1.75;0.38;;;15.00;64.40;;;;;;5107447;28;20052;-67
2021/12/30 10:08:59;;;;;;;1.03;0.33;;;15.00;65.50;;;;;;5102102;28;20555;-67
2021/12/30 10:11:25;;;;;;;1.27;0.40;;;15.00;66.40;;;;;;5101683;28;20383;-67
2021/12/30 10:16:31;;;;;;;2.00;0.40;;;15.10;65.90;;;;;;5130034;27;20383;-67
2021/12/30 10:19:00;;;;;;;2.75;0.38;;;15.60;64.60;;;;;;5126820;28;20455;-70
2021/12/30 10:21:36;;;;;;;3.30;0.30;;;16.10;63.60;;;;;;5126776;28;20119;-67
2021/12/30 10:24:08;;;;;;;1.63;0.30;;;16.60;62.60;;;;;;5128420;28;20042;-67
2021/12/30 10:26:53;;;;;;;1.02;0.20;;;17.30;60.80;;;;;;5126447;28;20039;-67
2021/12/30 10:29:19;;;;;;;2.47;0.30;;;18.30;58.60;;;;;;5126952;28;20051;-67
2021/12/30 10:31:45;;;;;;;2.22;0.30;;;19.20;56.20;;;;;;5124848;28;20044;-66
2021/12/30 10:34:16;;;;;;;1.65;0.38;;;19.60;54.90;;;;;;5129462;28;20035;-66
2021/12/30 10:36:45;;;;;;;1.20;0.22;;;19.90;54.30;;;;;;5129471;27;20479;-68
2021/12/30 10:45:04;;;;;;;1.67;0.30;;;20.10;53.70;;;;;;5130201;27;20391;-68
2021/12/30 10:47:33;;;;;;;1.40;0.20;;;20.90;51.50;;;;;;5128935;28;20057;-68
2021/12/30 10:52:48;;;;;;;1.15;0.30;;;21.40;50.40;;;;;;5089498;27;20382;-68
2021/12/30 10:55:14;;;;;;;3.17;0.32;;;21.40;50.30;;;;;;5088408;28;20575;-68
2021/12/30 10:57:43;;;;;;;1.52;0.30;;;21.50;50.20;;;;;;5088220;28;20448;-69
2021/12/30 11:00:23;;;;;;;1.13;0.20;;;21.50;50.10;;;;;;5088160;28;20072;-69
2021/12/30 11:02:52;;;;;;;1.10;0.30;;;21.50;50.00;;;;;;5088192;28;20052;-68
2021/12/30 11:05:18;;;;;;;1.98;0.43;;;21.50;50.00;;;;;;5088249;28;20484;-69
2021/12/30 11:07:52;;;;;;;1.52;0.20;;;21.50;50.20;;;;;;5089055;28;20542;-68
2021/12/30 11:10:33;;;;;;;1.52;0.22;;;21.30;50.40;;;;;;5088053;28;20040;-69
2021/12/30 11:13:17;;;;;;;1.58;0.30;;;21.30;50.80;;;;;;5089214;28;20426;-69
2021/12/30 11:15:43;;;;;;;1.58;0.32;;;21.00;51.10;;;;;;5088060;28;20094;-69
2021/12/30 11:18:11;;;;;;;1.92;0.30;;;20.90;51.40;;;;;;5087885;28;20384;-69
2021/12/30 11:20:40;;;;;;;3.67;0.52;;;20.80;51.70;;;;;;5087536;28;20119;-69
2021/12/30 11:23:05;;;;;;;2.22;0.30;;;20.70;52.10;;;;;;5087817;28;20519;-69
2021/12/30 11:25:31;;;;;;;1.98;0.30;;;20.60;52.40;;;;;;5089089;28;20043;-69
2021/12/30 11:27:58;;;;;;;3.03;0.55;;;20.50;52.60;;;;;;5087748;28;20127;-69
2021/12/30 11:30:27;;;;;;;3.30;0.60;;;20.40;52.80;;;;;;5087459;28;20064;-69
2021/12/30 11:32:52;;;;;;;2.78;0.70;;;20.30;53.20;;;;;;5088548;28;20036;-69
2021/12/30 11:35:20;;;;;;;2.10;0.40;;;20.10;53.40;;;;;;5086832;28;20480;-69
2021/12/30 11:37:47;;;;;;;3.28;0.50;;;20.00;53.70;;;;;;5087582;28;20047;-69
2021/12/30 11:40:17;;;;;;;3.03;0.60;;;19.90;54.10;;;;;;5087556;28;20040;-68
2021/12/30 11:42:48;;;;;;;4.00;0.50;;;19.80;54.30;;;;;;5088766;28;20082;-70
2021/12/30 11:48:29;;;;;;;3.20;0.35;;;19.70;54.60;;;;;;5108565;27;20798;-67
2021/12/30 11:53:48;;;;;;;3.58;0.47;;;19.50;54.70;;;;;;5089012;27;20417;-67
2021/12/30 11:58:56;;;;;;;5.93;1.08;;;19.40;55.00;;;;;;5130328;27;20358;-67
2021/12/30 12:04:06;;;;;;;3.33;0.68;;;19.20;55.20;;;;;;5130277;27;20349;-67
2021/12/30 12:06:38;;;;;;;;;;;19.00;55.40;;;;;;5129504;28;20039;-67
2021/12/30 12:09:09;;;;;;;3.25;0.68;;;19.00;55.50;;;;;;5146293;27;19920;-67
2021/12/30 12:17:08;;;;;;;5.68;0.60;;;18.70;56.10;;;;;;5130381;27;20386;-67
2021/12/30 12:25:11;;;;;;;4.78;1.00;;;18.60;56.30;;;;;;5130238;27;20369;-67
2021/12/30 12:27:39;;;;;;;5.22;1.00;;;18.40;56.90;;;;;;5129391;28;20402;-67
2021/12/30 12:30:20;;;;;;;6.30;1.30;;;18.30;57.00;;;;;;5128831;28;20055;-67
2021/12/30 12:32:46;;;;;;;4.70;1.08;;;18.20;57.10;;;;;;5128936;28;20522;-67
2021/12/30 12:37:56;;;;;;;5.03;1.15;;;18.10;57.30;;;;;;5130296;27;20349;-67
2021/12/30 12:40:28;;;;;;;5.43;0.90;;;17.90;57.80;;;;;;5128841;28;20070;-67
2021/12/30 12:42:55;;;;;;;5.93;0.95;;;17.90;58.20;;;;;;5129008;28;20051;-67
2021/12/30 12:48:25;;;;;;;5.32;1.25;;;17.80;58.70;;;;;;5152779;27;1167664;-67
2021/12/30 12:53:48;;;;;;;4.32;0.95;;;17.60;59.40;;;;;;5130406;27;20345;-67
2021/12/30 12:58:54;;;;;;;5.03;1.53;;;17.40;59.80;;;;;;5152890;27;1163747;-67
2021/12/30 13:01:22;;;;;;;6.40;1.40;;;17.30;60.50;;;;;;5153102;27;20073;-68
2021/12/30 13:03:49;;;;;;;5.65;1.42;;;17.20;60.70;;;;;;5153371;27;20051;-68
2021/12/30 13:06:18;;;;;;;4.55;0.90;;;17.20;60.90;;;;;;5153275;27;20061;-67
2021/12/30 13:08:47;;;;;;;7.50;1.70;;;17.10;61.10;;;;;;5153141;27;20541;-68
2021/12/30 13:11:35;;;;;;;5.43;1.13;;;17.10;61.20;;;;;;5152921;27;20046;-67
2021/12/30 13:14:12;;;;;;;5.35;1.58;;;17.00;61.60;;;;;;5152971;27;20092;-68
2021/12/30 13:16:40;;;;;;;6.07;1.35;;;17.00;61.60;;;;;;5152708;27;20070;-67
2021/12/30 13:21:54;;;;;;;5.22;1.38;;;16.90;61.90;;;;;;5130674;27;20379;-68
2021/12/30 13:24:45;;;;;;;5.88;1.40;;;16.80;62.00;;;;;;5129269;27;20082;-67
2021/12/30 13:29:58;;;;;;;4.25;1.30;;;16.80;62.30;;;;;;5109937;27;20573;-68
2021/12/30 13:32:25;;;;;;;;;;;16.70;62.40;;;;;;5108786;28;20055;-67
2021/12/30 13:35:01;;;;;;;6.35;1.33;;;16.70;63.00;;;;;;5108405;28;19923;-67
2021/12/30 13:37:34;;;;;;;7.20;1.27;;;16.60;62.70;;;;;;5108317;28;20494;-68
2021/12/30 13:40:03;;;;;;;5.97;1.55;;;16.60;62.70;;;;;;5125722;28;20043;-68
2021/12/30 13:42:31;;;;;;;6.50;1.77;;;16.60;62.80;;;;;;5108499;28;20052;-67